Banner, Wyoming
Current Conditions -  °F | °C
As of 1:53 PM on Thursday 18 Dec 2014 (Local Time) from KSHR Reporting Station
Clear Clear  
Wind Chill: 33°   Ceiling: Unl
Heat Index: 38°   Visibility: 10mi
Dew Point: 23°   Wind: 7mph
Humidity: 55%   Direction: 180°S
Pressure: 29.94"   Gusts: NA
Location:  44.6°N, 106.87°W
Report Text: KSHR 182053Z AUTO 18006KT 10SM CLR 03/M05 A2994 RMK AO2 SLP181 T00331050 56015
Loading
Personal Weather Stations






























Interactive Weather Map New forecast layout! Learn more

10-Day Weather Forecast

Advertisements
Track Severe Weather on mobile